Time;durP1;ratioP1;P1;durP2;ratioP2;P2;SDS_P1;SDS_P2;PMS_P1;PMS_P2;Temp;Humidity;BMP_temperature;BMP_pressure;BME280_temperature;BME280_humidity;BME280_pressure;Samples;Min_cycle;Max_cycle;Signal;HPM_P1;HPM_P2
2022/01/02 00:01:35;;;;;;;1.33;1.23;;;1.90;99.90;;;;;;4972842;28;20207;-65
2022/01/02 00:04:04;;;;;;;1.50;1.40;;;1.80;99.90;;;;;;4977885;28;20195;-64
2022/01/02 00:06:33;;;;;;;1.47;1.37;;;1.80;99.90;;;;;;4992165;28;20242;-65
2022/01/02 00:09:03;;;;;;;2.07;1.40;;;1.80;99.90;;;;;;4991527;28;20230;-66
2022/01/02 00:11:30;;;;;;;1.57;1.47;;;1.80;99.90;;;;;;4992312;28;20196;-64
2022/01/02 00:14:05;;;;;;;1.83;1.50;;;1.90;99.90;;;;;;4991742;28;20223;-64
2022/01/02 00:16:34;;;;;;;1.53;1.43;;;1.90;99.90;;;;;;4992409;28;20191;-65
2022/01/02 00:19:08;;;;;;;1.77;1.50;;;1.90;99.90;;;;;;4995941;28;20226;-66
2022/01/02 00:21:44;;;;;;;1.70;1.60;;;1.90;99.90;;;;;;4996231;28;20253;-65
2022/01/02 00:24:14;;;;;;;2.17;1.50;;;1.90;99.90;;;;;;4996244;28;20191;-65
2022/01/02 00:26:42;;;;;;;3.40;1.50;;;1.90;99.90;;;;;;4995576;28;20188;-64
2022/01/02 00:29:09;;;;;;;1.50;1.40;;;1.90;99.90;;;;;;4995589;28;20227;-66
2022/01/02 00:31:36;;;;;;;1.50;1.40;;;1.90;99.90;;;;;;4995781;28;20210;-63
2022/01/02 00:34:05;;;;;;;1.83;1.47;;;1.90;99.90;;;;;;4996044;28;20207;-65
2022/01/02 00:36:32;;;;;;;1.50;1.40;;;1.80;99.90;;;;;;4995874;28;20214;-64
2022/01/02 00:38:59;;;;;;;1.90;1.60;;;1.70;99.90;;;;;;4995492;28;20254;-65
2022/01/02 00:41:42;;;;;;;1.60;1.50;;;1.70;99.90;;;;;;4995741;28;20222;-65
2022/01/02 00:44:18;;;;;;;1.47;1.37;;;1.70;99.90;;;;;;4995847;28;20224;-66
2022/01/02 00:46:52;;;;;;;1.53;1.40;;;1.70;99.90;;;;;;4995518;28;20529;-65
2022/01/02 00:49:25;;;;;;;1.53;1.50;;;1.70;99.90;;;;;;4995520;28;20818;-64
2022/01/02 00:51:59;;;;;;;1.70;1.60;;;1.70;99.90;;;;;;4995547;28;20622;-65
2022/01/02 00:54:29;;;;;;;1.57;1.47;;;1.70;99.90;;;;;;4995714;28;20661;-65
2022/01/02 00:57:03;;;;;;;1.70;1.60;;;1.80;99.90;;;;;;4994996;28;20541;-64
2022/01/02 00:59:34;;;;;;;1.57;1.47;;;1.80;99.90;;;;;;4995285;28;20650;-64
2022/01/02 01:02:04;;;;;;;1.60;1.50;;;1.80;99.90;;;;;;4995466;28;20203;-66
2022/01/02 01:04:34;;;;;;;1.70;1.60;;;1.80;99.90;;;;;;4995212;28;20214;-63
2022/01/02 01:07:06;;;;;;;1.80;1.70;;;1.90;99.90;;;;;;4995173;28;20203;-65
2022/01/02 01:09:33;;;;;;;1.97;1.70;;;1.90;99.90;;;;;;4994783;28;20207;-64
2022/01/02 01:12:02;;;;;;;1.90;1.60;;;1.90;99.90;;;;;;4995297;28;20207;-64
2022/01/02 01:14:30;;;;;;;1.57;1.47;;;1.90;99.90;;;;;;4994573;28;20196;-65
2022/01/02 01:16:57;;;;;;;1.60;1.50;;;1.80;99.90;;;;;;4995266;28;20215;-65
2022/01/02 01:19:25;;;;;;;1.47;1.37;;;1.80;99.90;;;;;;4994929;28;20203;-65
2022/01/02 01:21:53;;;;;;;1.50;1.40;;;1.80;99.90;;;;;;4994434;28;20215;-66
2022/01/02 01:24:21;;;;;;;1.20;1.20;;;1.70;99.90;;;;;;4994589;28;20211;-64
2022/01/02 01:26:52;;;;;;;1.43;1.33;;;1.70;99.90;;;;;;4994785;28;20237;-64
2022/01/02 01:29:19;;;;;;;1.40;1.30;;;1.70;99.90;;;;;;4994159;28;20207;-65
2022/01/02 01:31:46;;;;;;;1.43;1.33;;;1.70;99.90;;;;;;4994705;28;20544;-64
2022/01/02 01:34:13;;;;;;;1.50;1.40;;;1.70;99.90;;;;;;4994550;28;20254;-65
2022/01/02 01:36:40;;;;;;;1.27;1.27;;;1.70;99.90;;;;;;4993804;28;20207;-65
2022/01/02 01:39:08;;;;;;;2.63;1.30;;;1.70;99.90;;;;;;4994432;28;20199;-65
2022/01/02 01:41:38;;;;;;;1.20;1.20;;;1.70;99.90;;;;;;4994220;28;20218;-64
2022/01/02 01:44:21;;;;;;;1.40;1.30;;;1.70;99.90;;;;;;4994586;28;20619;-64
2022/01/02 01:46:51;;;;;;;1.40;1.30;;;1.70;99.90;;;;;;4994387;28;20211;-66
2022/01/02 01:49:20;;;;;;;1.47;1.27;;;1.60;99.90;;;;;;4994297;28;20219;-65
2022/01/02 01:51:48;;;;;;;1.50;1.40;;;1.60;99.90;;;;;;4994473;28;20222;-66
2022/01/02 01:54:16;;;;;;;1.50;1.40;;;1.60;99.90;;;;;;4994723;28;20207;-66
2022/01/02 01:56:45;;;;;;;1.50;1.37;;;1.50;99.90;;;;;;4994210;28;20211;-64
2022/01/02 01:59:12;;;;;;;1.60;1.50;;;1.50;99.90;;;;;;4993884;28;20326;-64
2022/01/02 02:01:39;;;;;;;1.83;1.40;;;1.50;99.90;;;;;;4993921;28;20222;-63
2022/01/02 02:04:06;;;;;;;1.60;1.50;;;1.50;99.90;;;;;;4993943;28;20207;-64
2022/01/02 02:06:35;;;;;;;1.60;1.50;;;1.50;99.90;;;;;;4993904;28;20353;-65
2022/01/02 02:09:03;;;;;;;1.50;1.40;;;1.40;99.90;;;;;;4994107;28;20350;-65
2022/01/02 02:11:32;;;;;;;1.90;1.63;;;1.40;99.90;;;;;;4993648;28;20710;-64
2022/01/02 02:13:59;;;;;;;1.37;1.37;;;1.40;99.90;;;;;;4994139;28;20269;-65
2022/01/02 02:16:29;;;;;;;1.70;1.60;;;1.40;99.90;;;;;;4993819;28;20203;-66
2022/01/02 02:18:55;;;;;;;1.53;1.43;;;1.30;99.90;;;;;;4994079;28;20215;-65
2022/01/02 02:21:32;;;;;;;1.60;1.50;;;1.30;99.90;;;;;;4993803;28;20566;-64
2022/01/02 02:23:58;;;;;;;1.47;1.37;;;1.30;99.90;;;;;;4993603;28;20198;-65
2022/01/02 02:26:25;;;;;;;1.43;1.33;;;1.30;99.90;;;;;;4993401;28;20241;-66
2022/01/02 02:28:52;;;;;;;1.80;1.70;;;1.20;99.90;;;;;;4993702;28;20212;-64
2022/01/02 02:31:19;;;;;;;1.57;1.47;;;1.20;99.90;;;;;;4993434;28;20235;-65
2022/01/02 02:33:46;;;;;;;1.60;1.50;;;1.20;99.90;;;;;;4993797;28;20218;-65
2022/01/02 02:36:13;;;;;;;1.70;1.60;;;1.20;99.90;;;;;;4992907;28;20207;-66
2022/01/02 02:38:42;;;;;;;1.60;1.50;;;1.20;99.90;;;;;;4993277;28;20295;-65
2022/01/02 02:41:08;;;;;;;1.70;1.60;;;1.10;99.90;;;;;;4982851;28;20209;-66
2022/01/02 02:43:37;;;;;;;1.70;1.60;;;1.10;99.90;;;;;;4973850;28;20239;-65
2022/01/02 02:49:02;;;;;;;1.90;1.80;;;1.00;99.90;;;;;;4973721;28;20191;-64
2022/01/02 02:51:43;;;;;;;1.70;1.60;;;1.00;99.90;;;;;;4973535;28;20188;-65
2022/01/02 02:54:17;;;;;;;1.70;1.60;;;1.00;99.90;;;;;;4981175;28;20632;-64
2022/01/02 02:56:53;;;;;;;1.80;1.70;;;0.90;99.90;;;;;;4993114;28;20204;-65
2022/01/02 02:59:20;;;;;;;5.07;3.10;;;0.90;99.90;;;;;;4992473;28;20235;-64
2022/01/02 03:01:47;;;;;;;2.00;1.80;;;0.90;99.90;;;;;;4992597;28;20203;-65
2022/01/02 03:04:14;;;;;;;1.97;1.87;;;0.90;99.90;;;;;;4992666;28;20538;-65
2022/01/02 03:06:41;;;;;;;2.60;1.60;;;0.80;99.90;;;;;;4992865;28;20207;-64
2022/01/02 03:09:09;;;;;;;1.57;1.47;;;0.80;99.90;;;;;;4992992;28;20210;-65
2022/01/02 03:11:39;;;;;;;2.00;1.80;;;0.80;99.90;;;;;;4991989;28;20199;-64
2022/01/02 03:14:08;;;;;;;1.50;1.40;;;0.70;99.90;;;;;;4993343;28;20199;-65
2022/01/02 03:16:34;;;;;;;1.53;1.43;;;0.70;99.90;;;;;;4992254;28;20218;-64
2022/01/02 03:19:01;;;;;;;1.97;1.77;;;0.60;99.90;;;;;;4992769;28;20226;-65
2022/01/02 03:21:28;;;;;;;1.80;1.70;;;0.60;99.90;;;;;;4992422;28;20204;-64
2022/01/02 03:23:55;;;;;;;2.00;1.80;;;0.50;99.90;;;;;;4988768;28;20207;-65
2022/01/02 03:26:23;;;;;;;1.60;1.50;;;0.40;99.90;;;;;;4992590;28;20297;-64
2022/01/02 03:28:51;;;;;;;1.60;1.50;;;0.40;99.90;;;;;;4992303;28;20217;-65
2022/01/02 03:31:18;;;;;;;1.87;1.70;;;0.40;99.90;;;;;;4992176;28;20223;-64
2022/01/02 03:33:45;;;;;;;1.73;1.60;;;0.30;99.90;;;;;;4992748;28;20207;-64
2022/01/02 03:36:12;;;;;;;3.23;1.60;;;0.30;99.90;;;;;;4992526;28;20564;-64
2022/01/02 03:38:39;;;;;;;1.63;1.53;;;0.30;99.90;;;;;;4992420;28;20207;-65
2022/01/02 03:41:06;;;;;;;1.90;1.67;;;0.30;99.90;;;;;;4992472;28;20556;-65
2022/01/02 03:43:33;;;;;;;2.23;1.70;;;0.20;99.90;;;;;;4992326;28;20233;-65
2022/01/02 03:46:05;;;;;;;1.63;1.53;;;0.20;99.90;;;;;;4992494;28;20677;-65
2022/01/02 03:48:33;;;;;;;2.73;1.63;;;0.10;99.90;;;;;;4992023;28;20198;-65
2022/01/02 03:51:00;;;;;;;1.73;1.63;;;0.10;99.90;;;;;;4992253;28;20631;-63
2022/01/02 03:53:27;;;;;;;2.03;1.80;;;0.10;99.90;;;;;;4992190;28;20203;-64
2022/01/02 03:55:54;;;;;;;2.20;1.60;;;0.10;99.90;;;;;;4991971;28;20222;-64
2022/01/02 03:58:21;;;;;;;3.57;1.70;;;0.10;99.90;;;;;;4991709;28;20208;-64
2022/01/02 04:00:48;;;;;;;3.80;1.90;;;0.00;99.90;;;;;;4992278;28;20199;-64
2022/01/02 04:03:16;;;;;;;2.63;1.80;;;0.00;99.90;;;;;;4991796;28;20221;-65
2022/01/02 04:05:44;;;;;;;2.00;1.80;;;0.00;99.90;;;;;;4992349;28;20576;-64
2022/01/02 04:08:11;;;;;;;1.63;1.53;;;-0.10;99.90;;;;;;4991601;28;20215;-65
2022/01/02 04:10:38;;;;;;;2.30;1.83;;;-0.10;99.90;;;;;;4992141;28;20243;-64
2022/01/02 04:13:06;;;;;;;3.73;1.90;;;-0.10;99.90;;;;;;4991665;28;20208;-65
2022/01/02 04:15:33;;;;;;;1.93;1.73;;;-0.20;99.90;;;;;;4991752;28;20203;-64
2022/01/02 04:18:00;;;;;;;2.83;1.90;;;-0.20;99.90;;;;;;4991768;28;20211;-65
2022/01/02 04:20:29;;;;;;;1.97;1.77;;;-0.20;99.90;;;;;;4991740;28;20231;-65
2022/01/02 04:22:56;;;;;;;4.20;1.90;;;-0.20;99.90;;;;;;4991802;28;20273;-64
2022/01/02 04:25:23;;;;;;;3.53;2.03;;;-0.30;99.90;;;;;;4991874;28;20769;-65
2022/01/02 04:27:50;;;;;;;2.57;1.90;;;-0.30;99.90;;;;;;4991726;28;20682;-65
2022/01/02 04:30:16;;;;;;;1.93;1.80;;;-0.30;99.90;;;;;;4991602;28;20684;-64
2022/01/02 04:32:43;;;;;;;2.00;1.77;;;-0.40;99.90;;;;;;4991908;28;20273;-65
2022/01/02 04:35:10;;;;;;;2.60;1.97;;;-0.40;99.90;;;;;;4991766;28;20207;-64
2022/01/02 04:37:39;;;;;;;4.00;1.80;;;-0.40;99.90;;;;;;4991715;28;20211;-63
2022/01/02 04:40:07;;;;;;;3.67;1.90;;;-0.40;99.90;;;;;;4991666;28;20199;-64
2022/01/02 04:42:34;;;;;;;2.57;2.00;;;-0.50;99.90;;;;;;4991413;28;20242;-64
2022/01/02 04:45:00;;;;;;;2.23;1.93;;;-0.50;99.90;;;;;;4991777;28;20207;-64
2022/01/02 04:47:27;;;;;;;2.20;1.80;;;-0.50;99.90;;;;;;4991480;28;20214;-64
2022/01/02 04:49:54;;;;;;;2.50;2.10;;;-0.50;99.90;;;;;;4991811;28;20664;-64
2022/01/02 04:52:21;;;;;;;2.07;1.80;;;-0.60;99.90;;;;;;4991572;28;20212;-65
2022/01/02 04:54:49;;;;;;;1.80;1.70;;;-0.60;99.90;;;;;;4991707;28;20234;-64
2022/01/02 04:57:16;;;;;;;2.10;1.90;;;-0.60;99.90;;;;;;4990965;28;20214;-64
2022/01/02 04:59:43;;;;;;;3.13;1.87;;;-0.60;99.90;;;;;;4991351;28;20246;-65
2022/01/02 05:02:09;;;;;;;2.27;2.07;;;-0.60;99.90;;;;;;4991594;28;20214;-64
2022/01/02 05:04:36;;;;;;;1.90;1.80;;;-0.60;99.90;;;;;;4994753;28;20208;-65
2022/01/02 05:07:03;;;;;;;2.27;1.70;;;-0.70;99.90;;;;;;4994919;28;20200;-64
2022/01/02 05:09:30;;;;;;;2.77;2.00;;;-0.80;99.90;;;;;;4995018;28;20215;-64
2022/01/02 05:11:58;;;;;;;2.23;2.00;;;-0.80;99.90;;;;;;4994599;28;20235;-63
2022/01/02 05:14:25;;;;;;;3.23;2.20;;;-0.80;99.90;;;;;;4995352;28;20663;-64
2022/01/02 05:16:52;;;;;;;2.90;2.10;;;-0.80;99.90;;;;;;4994867;28;20598;-64
2022/01/02 05:19:18;;;;;;;3.17;2.20;;;-0.80;99.90;;;;;;4994941;28;20593;-64
2022/01/02 05:21:45;;;;;;;2.00;1.90;;;-0.90;99.90;;;;;;4995103;28;20214;-64
2022/01/02 05:24:12;;;;;;;3.20;2.40;;;-0.90;99.90;;;;;;4994739;28;20218;-65
2022/01/02 05:26:39;;;;;;;2.90;2.40;;;-0.90;99.90;;;;;;4994680;28;20199;-66
2022/01/02 05:29:07;;;;;;;3.13;2.50;;;-1.00;99.90;;;;;;4994225;28;20211;-64
2022/01/02 05:31:34;;;;;;;3.10;1.93;;;-1.00;99.90;;;;;;4994815;28;20227;-63
2022/01/02 05:34:01;;;;;;;2.47;2.20;;;-1.00;99.90;;;;;;4994226;28;20625;-64
2022/01/02 05:36:28;;;;;;;2.90;2.20;;;-1.10;99.90;;;;;;4994470;28;20652;-64
2022/01/02 05:38:54;;;;;;;2.43;2.00;;;-1.10;99.90;;;;;;4994610;28;20210;-65
2022/01/02 05:41:21;;;;;;;4.27;2.00;;;-1.10;99.90;;;;;;4994326;28;20215;-64
2022/01/02 05:43:48;;;;;;;2.57;2.10;;;-1.20;99.90;;;;;;4994591;28;20644;-63
2022/01/02 05:46:17;;;;;;;2.23;2.03;;;-1.20;99.90;;;;;;4993948;28;20711;-64
2022/01/02 05:48:44;;;;;;;2.40;2.20;;;-1.20;99.90;;;;;;4994313;28;20217;-65
2022/01/02 05:51:11;;;;;;;3.27;2.30;;;-1.20;99.90;;;;;;4993947;28;20688;-64
2022/01/02 05:53:38;;;;;;;2.60;2.30;;;-1.20;99.90;;;;;;4994439;28;20256;-65
2022/01/02 05:56:05;;;;;;;2.60;2.40;;;-1.30;99.90;;;;;;4993933;28;20215;-64
2022/01/02 05:58:32;;;;;;;3.23;2.37;;;-1.30;99.90;;;;;;4994223;28;20211;-64
2022/01/02 06:00:59;;;;;;;3.43;2.40;;;-1.30;99.90;;;;;;4993575;28;20212;-65
2022/01/02 06:03:27;;;;;;;2.93;2.30;;;-1.40;99.90;;;;;;4994393;28;20544;-66
2022/01/02 06:05:53;;;;;;;3.60;2.50;;;-1.40;99.90;;;;;;4994051;28;20219;-65
2022/01/02 06:08:20;;;;;;;2.73;2.37;;;-1.40;99.90;;;;;;4994293;28;20563;-64
2022/01/02 06:10:47;;;;;;;2.73;2.40;;;-1.40;99.90;;;;;;4993855;28;20575;-65
2022/01/02 06:13:14;;;;;;;3.00;2.50;;;-1.40;99.90;;;;;;4994061;28;20242;-65
2022/01/02 06:15:41;;;;;;;2.70;2.40;;;-1.50;99.90;;;;;;4992944;28;20208;-65
2022/01/02 06:18:07;;;;;;;3.23;2.50;;;-1.50;99.90;;;;;;4993508;28;20330;-67
2022/01/02 06:20:35;;;;;;;2.83;2.20;;;-1.50;99.90;;;;;;4993496;28;20207;-65
2022/01/02 06:23:02;;;;;;;3.47;2.50;;;-1.50;99.90;;;;;;4993180;28;20211;-65
2022/01/02 06:25:29;;;;;;;2.93;2.37;;;-1.50;99.90;;;;;;4993892;28;20207;-64
2022/01/02 06:27:56;;;;;;;3.60;2.53;;;-1.50;99.90;;;;;;4993062;28;20209;-64
2022/01/02 06:30:23;;;;;;;3.57;2.63;;;-1.50;99.90;;;;;;4993195;28;20220;-65
2022/01/02 06:32:54;;;;;;;3.07;2.23;;;-1.60;99.90;;;;;;4993036;28;20199;-66
2022/01/02 06:35:26;;;;;;;2.57;2.30;;;-1.50;99.90;;;;;;4993067;28;20195;-64
2022/01/02 06:37:54;;;;;;;3.27;2.33;;;-1.60;99.90;;;;;;4993055;28;20584;-65
2022/01/02 06:40:22;;;;;;;2.50;2.30;;;-1.60;99.90;;;;;;4993568;28;20571;-65
2022/01/02 06:42:49;;;;;;;2.83;2.30;;;-1.50;99.90;;;;;;4993222;28;20231;-64
2022/01/02 06:45:16;;;;;;;5.13;2.33;;;-1.50;99.90;;;;;;4993113;28;20200;-65
2022/01/02 06:47:43;;;;;;;3.40;2.47;;;-1.50;99.90;;;;;;4993484;28;20237;-65
2022/01/02 06:50:13;;;;;;;3.50;2.50;;;-1.50;99.90;;;;;;4993189;28;20307;-64
2022/01/02 06:52:40;;;;;;;4.73;2.80;;;-1.40;99.90;;;;;;4993354;28;20251;-67
2022/01/02 06:55:09;;;;;;;3.43;2.30;;;-1.40;99.90;;;;;;4992483;28;20218;-66
2022/01/02 06:57:36;;;;;;;3.17;2.53;;;-1.40;99.90;;;;;;4993192;28;20573;-64
2022/01/02 07:00:05;;;;;;;3.30;2.60;;;-1.40;99.90;;;;;;4992073;28;20757;-64
2022/01/02 07:02:32;;;;;;;2.70;2.17;;;-1.40;99.90;;;;;;4992823;28;20203;-65
2022/01/02 07:04:58;;;;;;;3.43;2.50;;;-1.40;99.90;;;;;;4992737;28;20203;-66
2022/01/02 07:07:25;;;;;;;4.20;2.60;;;-1.40;99.90;;;;;;4992749;28;20203;-65
2022/01/02 07:09:52;;;;;;;2.60;2.30;;;-1.40;99.90;;;;;;4992654;28;20203;-64
2022/01/02 07:12:20;;;;;;;4.30;2.70;;;-1.40;99.90;;;;;;4992334;28;20583;-65
2022/01/02 07:14:47;;;;;;;5.47;2.67;;;-1.40;99.90;;;;;;4991305;28;20679;-64
2022/01/02 07:17:14;;;;;;;4.40;2.70;;;-1.40;99.90;;;;;;4988959;28;20199;-65
2022/01/02 07:19:40;;;;;;;3.80;3.00;;;-1.40;99.90;;;;;;4992414;28;20213;-65
2022/01/02 07:22:07;;;;;;;3.03;2.63;;;-1.40;99.90;;;;;;4992731;28;20210;-64
2022/01/02 07:24:34;;;;;;;3.40;2.67;;;-1.40;99.90;;;;;;4993219;28;20559;-66
2022/01/02 07:27:01;;;;;;;3.90;3.03;;;-1.40;99.90;;;;;;4992579;28;20227;-66
2022/01/02 07:29:30;;;;;;;4.23;2.77;;;-1.40;99.90;;;;;;4993041;28;20211;-65
2022/01/02 07:31:56;;;;;;;4.20;2.50;;;-1.40;99.90;;;;;;4992516;28;20222;-64
2022/01/02 07:34:23;;;;;;;3.97;2.67;;;-1.40;99.90;;;;;;4991849;28;20203;-66
2022/01/02 07:36:50;;;;;;;4.13;2.70;;;-1.40;99.90;;;;;;4992310;28;20672;-65
2022/01/02 07:39:17;;;;;;;4.17;2.63;;;-1.40;99.90;;;;;;4992570;28;20566;-64
2022/01/02 07:41:44;;;;;;;5.00;2.50;;;-1.40;99.90;;;;;;4991906;28;20200;-64
2022/01/02 07:44:11;;;;;;;2.93;2.30;;;-1.30;99.90;;;;;;4992444;28;20211;-64
2022/01/02 07:46:39;;;;;;;3.30;2.60;;;-1.40;99.90;;;;;;4986010;28;20211;-64
2022/01/02 07:49:05;;;;;;;4.10;2.57;;;-1.40;99.90;;;;;;4991940;28;20208;-65
2022/01/02 07:51:32;;;;;;;3.07;2.50;;;-1.40;99.90;;;;;;4991564;28;20230;-64
2022/01/02 07:54:00;;;;;;;3.30;2.53;;;-1.40;99.90;;;;;;4991927;28;20229;-64
2022/01/02 07:56:27;;;;;;;2.87;2.50;;;-1.40;99.90;;;;;;4991844;28;20306;-65
2022/01/02 07:58:55;;;;;;;3.23;2.50;;;-1.30;99.90;;;;;;4990847;28;20235;-65
2022/01/02 08:01:22;;;;;;;4.87;2.80;;;-1.30;99.90;;;;;;4992002;28;20274;-65
2022/01/02 08:03:51;;;;;;;2.90;2.20;;;-1.30;99.90;;;;;;4991619;28;20214;-65
2022/01/02 08:06:17;;;;;;;4.40;2.40;;;-1.30;99.90;;;;;;4991330;28;20208;-65
2022/01/02 08:08:45;;;;;;;5.27;2.20;;;-1.30;99.90;;;;;;4991457;28;20211;-62
2022/01/02 08:11:12;;;;;;;3.47;2.50;;;-1.40;99.90;;;;;;4991055;28;20215;-65
2022/01/02 08:13:39;;;;;;;3.73;2.70;;;-1.30;99.90;;;;;;4991550;28;20314;-64
2022/01/02 08:16:05;;;;;;;4.33;2.60;;;-1.30;99.90;;;;;;4992013;28;20575;-65
2022/01/02 08:18:32;;;;;;;3.97;2.60;;;-1.30;99.90;;;;;;4991919;28;20683;-66
2022/01/02 08:21:00;;;;;;;3.27;2.43;;;-1.20;99.90;;;;;;4990979;28;20223;-65
2022/01/02 08:23:27;;;;;;;3.30;2.40;;;-1.20;99.90;;;;;;4992129;28;20567;-64
2022/01/02 08:25:54;;;;;;;2.70;2.23;;;-1.20;99.90;;;;;;4991331;28;20223;-65
2022/01/02 08:28:21;;;;;;;2.50;2.27;;;-1.20;99.90;;;;;;4990962;28;20320;-66
2022/01/02 08:30:48;;;;;;;6.13;2.50;;;-1.20;99.90;;;;;;4990841;28;20207;-65
2022/01/02 08:33:15;;;;;;;4.63;2.37;;;-1.20;99.90;;;;;;4991637;28;20226;-65
2022/01/02 08:35:42;;;;;;;3.73;2.63;;;-1.20;99.90;;;;;;4991669;28;20657;-66
2022/01/02 08:38:10;;;;;;;3.20;2.40;;;-1.20;99.90;;;;;;4993165;28;20226;-65
2022/01/02 08:40:38;;;;;;;4.37;2.33;;;-1.20;99.90;;;;;;4994913;28;20785;-64
2022/01/02 08:43:04;;;;;;;3.67;2.47;;;-1.20;99.90;;;;;;4994857;28;20207;-66
2022/01/02 08:45:31;;;;;;;2.73;2.43;;;-1.20;99.90;;;;;;4995407;28;20207;-63
2022/01/02 08:47:59;;;;;;;6.00;3.20;;;-1.20;99.90;;;;;;4995405;28;20208;-65
2022/01/02 08:50:25;;;;;;;2.93;2.47;;;-1.10;99.90;;;;;;4995017;28;20218;-66
2022/01/02 08:52:52;;;;;;;2.80;2.30;;;-1.10;99.90;;;;;;4995048;28;20231;-64
2022/01/02 08:55:20;;;;;;;3.87;2.53;;;-1.10;99.90;;;;;;4995407;28;20203;-65
2022/01/02 08:57:47;;;;;;;4.50;2.53;;;-1.00;99.90;;;;;;4994789;28;20651;-65
2022/01/02 09:00:16;;;;;;;3.90;2.73;;;-1.00;99.90;;;;;;4994762;28;20739;-65
2022/01/02 09:02:43;;;;;;;3.53;2.30;;;-1.00;99.90;;;;;;4994961;28;20207;-67
2022/01/02 09:05:10;;;;;;;3.53;2.40;;;-1.00;99.90;;;;;;4995328;28;20203;-65
2022/01/02 09:07:37;;;;;;;5.60;2.30;;;-0.90;99.90;;;;;;4994879;28;20615;-64
2022/01/02 09:10:05;;;;;;;2.43;2.10;;;-0.90;99.90;;;;;;4980774;28;20235;-64
2022/01/02 09:12:33;;;;;;;4.13;2.70;;;-0.90;99.90;;;;;;4975023;28;20239;-64
2022/01/02 09:15:00;;;;;;;3.63;2.50;;;-0.80;99.90;;;;;;4975365;28;20208;-66
2022/01/02 09:17:27;;;;;;;3.63;2.57;;;-0.80;99.90;;;;;;4991360;28;20199;-64
2022/01/02 09:19:53;;;;;;;2.80;2.40;;;-0.80;99.90;;;;;;4995000;28;20222;-66
2022/01/02 09:22:20;;;;;;;4.03;2.37;;;-0.80;99.90;;;;;;4994798;28;20254;-65
2022/01/02 09:24:47;;;;;;;3.23;2.27;;;-0.70;99.90;;;;;;4993789;28;20211;-66
2022/01/02 09:27:14;;;;;;;2.93;2.00;;;-0.80;99.90;;;;;;4994200;28;20696;-64
2022/01/02 09:29:42;;;;;;;5.10;2.40;;;-0.70;99.90;;;;;;4993355;28;20215;-65
2022/01/02 09:32:09;;;;;;;2.80;2.23;;;-0.70;99.90;;;;;;4994653;28;20231;-65
2022/01/02 09:34:35;;;;;;;3.53;2.37;;;-0.70;99.90;;;;;;4994334;28;20214;-66
2022/01/02 09:37:04;;;;;;;4.40;2.40;;;-0.60;99.90;;;;;;4994662;28;20199;-67
2022/01/02 09:39:31;;;;;;;4.40;2.40;;;-0.60;99.90;;;;;;4994451;28;20223;-63
2022/01/02 09:41:58;;;;;;;5.80;2.50;;;-0.50;99.90;;;;;;4994966;28;20203;-66
2022/01/02 09:44:25;;;;;;;4.00;2.30;;;-0.50;99.90;;;;;;4994063;28;20589;-66
2022/01/02 09:46:55;;;;;;;7.10;2.10;;;-0.50;99.90;;;;;;4994759;28;20211;-67
2022/01/02 09:49:22;;;;;;;3.40;2.27;;;-0.40;99.90;;;;;;4993905;28;20196;-66
2022/01/02 09:51:49;;;;;;;6.07;2.90;;;-0.40;99.90;;;;;;4994286;28;20228;-65
2022/01/02 09:54:16;;;;;;;5.43;2.90;;;-0.30;99.90;;;;;;4994111;28;20208;-65
2022/01/02 09:56:43;;;;;;;4.67;2.40;;;-0.30;99.90;;;;;;4994318;28;20203;-65
2022/01/02 09:59:09;;;;;;;4.30;2.10;;;-0.30;99.90;;;;;;4994266;28;20596;-65
2022/01/02 10:01:37;;;;;;;3.57;2.27;;;-0.30;99.90;;;;;;4994078;28;20214;-67
2022/01/02 10:04:05;;;;;;;5.67;3.37;;;-0.30;99.90;;;;;;4993576;28;20546;-67
2022/01/02 10:06:40;;;;;;;2.60;1.90;;;-0.30;99.90;;;;;;4993927;28;20206;-66
2022/01/02 10:09:14;;;;;;;4.73;2.10;;;-0.20;99.90;;;;;;4994280;28;20191;-65
2022/01/02 10:11:41;;;;;;;2.80;2.03;;;-0.20;99.90;;;;;;4994348;28;20210;-65
2022/01/02 10:14:10;;;;;;;5.43;2.00;;;-0.10;99.90;;;;;;4994165;28;20210;-67
2022/01/02 10:16:39;;;;;;;2.47;1.70;;;-0.10;99.90;;;;;;4992194;28;20253;-65
2022/01/02 10:19:21;;;;;;;2.33;1.90;;;-0.10;99.90;;;;;;4993500;28;20214;-66
2022/01/02 10:21:56;;;;;;;2.57;1.93;;;-0.10;99.90;;;;;;4993392;28;20195;-67
2022/01/02 10:24:27;;;;;;;2.67;2.20;;;-0.10;99.90;;;;;;4993271;28;20210;-66
2022/01/02 10:27:21;;;;;;;5.27;2.40;;;0.00;99.90;;;;;;4989370;28;20223;-68
2022/01/02 10:29:51;;;;;;;2.60;2.00;;;0.00;99.90;;;;;;4968892;28;20213;-67
2022/01/02 10:32:25;;;;;;;5.07;2.47;;;0.00;99.90;;;;;;4991942;28;20469;-67
2022/01/02 10:35:06;;;;;;;4.40;2.10;;;0.00;99.90;;;;;;4991356;28;20712;-65
2022/01/02 10:37:33;;;;;;;4.93;2.63;;;0.10;99.90;;;;;;4992590;28;20215;-66
2022/01/02 10:40:00;;;;;;;4.53;2.50;;;0.20;99.90;;;;;;4993211;28;20199;-67
2022/01/02 10:42:27;;;;;;;3.33;2.30;;;0.30;99.90;;;;;;4992824;28;20563;-66
2022/01/02 10:44:54;;;;;;;5.37;2.27;;;0.30;99.90;;;;;;4993105;28;20290;-66
2022/01/02 10:47:24;;;;;;;3.00;2.20;;;0.30;99.90;;;;;;4991896;28;20203;-66
2022/01/02 10:49:55;;;;;;;3.47;2.30;;;0.40;99.90;;;;;;4992770;28;20215;-68
2022/01/02 10:52:24;;;;;;;3.47;2.23;;;0.40;99.90;;;;;;4991910;28;20212;-68
2022/01/02 10:54:51;;;;;;;5.10;2.23;;;0.40;99.90;;;;;;4992091;28;20211;-67
2022/01/02 10:57:18;;;;;;;3.83;2.10;;;0.50;99.90;;;;;;4991404;28;20231;-66
2022/01/02 10:59:46;;;;;;;3.43;2.20;;;0.50;99.90;;;;;;4991980;28;20239;-67
2022/01/02 11:02:14;;;;;;;3.40;2.30;;;0.50;99.90;;;;;;4992286;28;20556;-68
2022/01/02 11:04:47;;;;;;;7.07;2.33;;;0.60;99.90;;;;;;4999321;28;20686;-66
2022/01/02 11:07:20;;;;;;;3.10;2.33;;;0.50;99.90;;;;;;4994758;28;20202;-64
2022/01/02 11:09:48;;;;;;;8.13;3.00;;;0.50;99.90;;;;;;4992812;28;20580;-65
2022/01/02 11:12:15;;;;;;;2.53;2.03;;;0.50;99.90;;;;;;4992567;28;20613;-65
2022/01/02 11:14:42;;;;;;;3.53;2.10;;;0.50;99.90;;;;;;4991775;28;20230;-68
2022/01/02 11:17:09;;;;;;;4.27;2.40;;;0.60;99.90;;;;;;4990826;28;20227;-67
2022/01/02 11:19:36;;;;;;;4.27;2.50;;;0.60;99.90;;;;;;4992759;28;20208;-66
2022/01/02 11:22:05;;;;;;;4.93;2.70;;;0.60;99.90;;;;;;4992497;28;20211;-65
2022/01/02 11:24:39;;;;;;;2.73;2.33;;;0.70;99.90;;;;;;4992608;28;20218;-66
2022/01/02 11:27:16;;;;;;;2.20;2.00;;;0.70;99.90;;;;;;4985503;28;20213;-66
2022/01/02 11:29:43;;;;;;;4.40;2.50;;;0.70;99.90;;;;;;4991961;28;20219;-67
2022/01/02 11:32:25;;;;;;;4.40;2.30;;;0.60;99.90;;;;;;4989004;28;20295;-64
2022/01/02 11:34:52;;;;;;;3.60;2.20;;;0.50;99.90;;;;;;4984559;28;20195;-68
2022/01/02 11:37:22;;;;;;;4.23;2.37;;;0.60;99.90;;;;;;4990545;28;20291;-65
2022/01/02 11:39:58;;;;;;;4.70;2.63;;;0.70;99.90;;;;;;4991757;28;20200;-66
2022/01/02 11:42:45;;;;;;;3.50;2.33;;;0.60;99.90;;;;;;4991584;28;20424;-65
2022/01/02 11:45:39;;;;;;;3.63;2.50;;;0.60;99.90;;;;;;4991884;28;20211;-65
2022/01/02 11:48:25;;;;;;;5.23;2.40;;;0.50;99.90;;;;;;4992354;28;20235;-66
2022/01/02 11:50:52;;;;;;;4.23;2.10;;;0.50;99.90;;;;;;4992667;28;20551;-66
2022/01/02 11:53:23;;;;;;;4.77;2.43;;;0.50;99.90;;;;;;4992213;28;20227;-67
2022/01/02 11:55:53;;;;;;;5.53;2.33;;;0.60;99.90;;;;;;4992115;28;20202;-67
2022/01/02 11:58:47;;;;;;;7.43;2.50;;;0.60;99.90;;;;;;4992423;28;20656;-67
2022/01/02 12:01:47;;;;;;;5.23;3.07;;;0.60;99.90;;;;;;4992270;28;20617;-67
2022/01/02 12:04:14;;;;;;;4.17;2.33;;;0.60;99.90;;;;;;4992308;28;20266;-65
2022/01/02 12:06:42;;;;;;;2.97;2.20;;;0.60;99.90;;;;;;4992224;28;20575;-66
2022/01/02 12:09:34;;;;;;;2.80;2.30;;;0.70;99.90;;;;;;4992313;28;20211;-66
2022/01/02 12:12:04;;;;;;;4.00;2.50;;;0.80;99.90;;;;;;4993546;28;20629;-67
2022/01/02 12:14:31;;;;;;;3.73;2.43;;;0.80;99.90;;;;;;4996629;28;20653;-68
2022/01/02 12:17:13;;;;;;;5.03;2.60;;;0.80;99.90;;;;;;4996319;28;20229;-67
2022/01/02 12:20:00;;;;;;;4.60;2.60;;;0.70;99.90;;;;;;4996511;28;20570;-66
2022/01/02 12:22:45;;;;;;;7.43;2.50;;;0.80;99.90;;;;;;4996174;28;20213;-66
2022/01/02 12:25:18;;;;;;;3.07;2.20;;;0.90;99.90;;;;;;4996384;28;20617;-69
2022/01/02 12:27:56;;;;;;;3.87;2.60;;;1.00;99.90;;;;;;4996330;28;20482;-67
2022/01/02 12:30:24;;;;;;;4.03;2.70;;;0.90;99.90;;;;;;4996067;28;20213;-68
2022/01/02 12:32:51;;;;;;;3.87;2.50;;;0.90;99.90;;;;;;4995981;28;20227;-67
2022/01/02 12:35:18;;;;;;;5.80;2.40;;;0.90;99.90;;;;;;4995645;28;20226;-67
2022/01/02 12:37:46;;;;;;;6.83;2.90;;;1.00;99.90;;;;;;4995664;28;20211;-66
2022/01/02 12:40:15;;;;;;;3.77;2.57;;;1.00;99.90;;;;;;4995381;28;20203;-65
2022/01/02 12:42:42;;;;;;;3.50;2.67;;;1.00;99.90;;;;;;4995752;28;20204;-67
2022/01/02 12:45:11;;;;;;;6.33;3.13;;;1.10;99.90;;;;;;4996284;28;20667;-65
2022/01/02 12:47:49;;;;;;;4.57;2.87;;;1.20;99.90;;;;;;4995840;28;20293;-68
2022/01/02 12:50:24;;;;;;;7.23;2.87;;;1.20;99.90;;;;;;4995932;28;20195;-65
2022/01/02 12:52:52;;;;;;;4.30;2.60;;;1.20;99.90;;;;;;4995824;28;20269;-65
2022/01/02 12:55:19;;;;;;;6.90;2.63;;;1.20;99.90;;;;;;4995636;28;20576;-68
2022/01/02 12:57:46;;;;;;;4.87;2.67;;;1.10;99.90;;;;;;4995946;28;20567;-67
2022/01/02 13:00:15;;;;;;;4.27;2.77;;;1.10;99.90;;;;;;4995035;28;20271;-68
2022/01/02 13:02:42;;;;;;;7.13;3.23;;;1.20;99.90;;;;;;4995657;28;20570;-65
2022/01/02 13:05:10;;;;;;;5.77;3.20;;;1.30;99.90;;;;;;4995561;28;20548;-67